Accueil
METAR-TAF:

METAR-TAF

Aéroports :

Base aérienne Hoedspruit

Hoedspruit, Afrique du Sud

latitude: 24-21-17S, longitude: 31-03-01E, altitude: 531 m

Observation

Le bulletin a été fait il y a 1 heure et 5 minutes, à 14:00 UTC
Vent 3 kt de nord
Température 0°C
Humidité 26%
Pression 1021 hPa

METAR: FAHS 121400Z AUTO 01003KT //// // ////// 00/M17 Q1021

Heure: 17:05 (15:05 UTC)

Prévision

Le bulletin a été fait il y a 6 heures et 5 minutes, à 09:00 UTC
Prévision valable du 12 à 10 UTC au 12 à 18 UTC
Vent 11 kt de sud/sud-est
Visibilité 10 km ou plus
Nuages fragmentés à une hauteur de 2000 ft
Evoluant progressivement
du 12 à 11 UTC au 12 à 13 UTC
Vent 3 kt de direction variable
Probabilité 30% :
Temporairement
du 12 à 12 UTC au 12 à 15 UTC
Quelques nuages à une hauteur de 3500 ft, Cumulus congestus.

TAF: FAHS 120900Z 1210/1218 16011KT 9999 BKN020 TX24/1213Z TN17/1218Z BECMG 1211/1213 VRB03KT PROB30 TEMPO 1212/1215 FEW035TCU

Observations et prévisions météorologiques de plus de 4000 aéroports (messages METAR et TAF).

Les stations disponibles sont représentées par des disques jaunes et rouges sur la carte.

Passer la souris dessus pour voir le nom de la station.

Cliquer dessus pour voir les observations et prévisions météorologiques.

Pour changer de carte: cliquez sur les boutons verts avec une croix noire pour zoomer, sur le bouton vert avec un tiret pour effectuer un zoom arrière, ou sur les flèches vertes pour les cartes adjacentes.


METAR-TAF: